sensor_id;sensor_type;location;lat;lon;timestamp;temperature;humidity
2112;DHT22;1062;52.538;13.400;2023-05-10T13:34:23;23.30;66.60
2112;DHT22;1062;52.538;13.400;2023-05-10T13:36:49;23.40;68.20
2112;DHT22;1062;52.538;13.400;2023-05-10T13:39:15;23.50;69.90
2112;DHT22;1062;52.538;13.400;2023-05-10T13:41:41;23.40;70.00
2112;DHT22;1062;52.538;13.400;2023-05-10T13:44:06;23.40;70.10
2112;DHT22;1062;52.538;13.400;2023-05-10T13:46:32;23.50;70.20
2112;DHT22;1062;52.538;13.400;2023-05-10T13:48:58;23.40;70.50
2112;DHT22;1062;52.538;13.400;2023-05-10T13:51:23;23.50;69.90
2112;DHT22;1062;52.538;13.400;2023-05-10T13:53:49;23.50;70.90
2112;DHT22;1062;52.538;13.400;2023-05-10T13:56:15;23.50;70.30
2112;DHT22;1062;52.538;13.400;2023-05-10T13:58:41;23.80;69.30
2112;DHT22;1062;52.538;13.400;2023-05-10T14:01:07;23.90;68.00
2112;DHT22;1062;52.538;13.400;2023-05-10T14:03:32;23.80;67.60
2112;DHT22;1062;52.538;13.400;2023-05-10T14:05:58;23.60;67.00
2112;DHT22;1062;52.538;13.400;2023-05-10T14:08:24;23.30;67.10
2112;DHT22;1062;52.538;13.400;2023-05-10T14:10:49;23.60;66.60
2112;DHT22;1062;52.538;13.400;2023-05-10T14:13:16;23.60;66.30
2112;DHT22;1062;52.538;13.400;2023-05-10T14:15:41;23.60;66.50
2112;DHT22;1062;52.538;13.400;2023-05-10T14:18:07;23.70;66.30
2112;DHT22;1062;52.538;13.400;2023-05-10T14:20:32;23.80;63.90
2112;DHT22;1062;52.538;13.400;2023-05-10T14:22:59;23.90;64.40
2112;DHT22;1062;52.538;13.400;2023-05-10T14:25:25;23.80;64.50
2112;DHT22;1062;52.538;13.400;2023-05-10T14:27:51;23.90;65.50
2112;DHT22;1062;52.538;13.400;2023-05-10T14:30:20;23.80;66.80
2112;DHT22;1062;52.538;13.400;2023-05-10T14:32:45;23.70;65.00
2112;DHT22;1062;52.538;13.400;2023-05-10T14:35:11;23.70;64.00
2112;DHT22;1062;52.538;13.400;2023-05-10T14:37:38;24.00;64.40
2112;DHT22;1062;52.538;13.400;2023-05-10T14:40:04;24.00;63.90
2112;DHT22;1062;52.538;13.400;2023-05-10T14:42:30;23.90;63.30
2112;DHT22;1062;52.538;13.400;2023-05-10T14:44:56;24.00;63.00
2112;DHT22;1062;52.538;13.400;2023-05-10T14:47:22;24.00;62.00
2112;DHT22;1062;52.538;13.400;2023-05-10T14:49:47;23.80;61.30
2112;DHT22;1062;52.538;13.400;2023-05-10T14:52:13;23.80;62.20
2112;DHT22;1062;52.538;13.400;2023-05-10T14:54:39;23.80;63.70
2112;DHT22;1062;52.538;13.400;2023-05-10T14:57:06;23.70;64.70
2112;DHT22;1062;52.538;13.400;2023-05-10T14:59:32;23.70;64.70
2112;DHT22;1062;52.538;13.400;2023-05-10T15:01:57;23.60;65.60
2112;DHT22;1062;52.538;13.400;2023-05-10T15:04:23;23.70;65.50
2112;DHT22;1062;52.538;13.400;2023-05-10T15:06:48;23.90;64.60
2112;DHT22;1062;52.538;13.400;2023-05-10T15:09:14;24.00;63.60
2112;DHT22;1062;52.538;13.400;2023-05-10T15:11:41;24.10;61.60
2112;DHT22;1062;52.538;13.400;2023-05-10T15:14:07;24.10;61.70
2112;DHT22;1062;52.538;13.400;2023-05-10T15:16:33;24.10;61.70
2112;DHT22;1062;52.538;13.400;2023-05-10T15:18:58;23.90;63.10
2112;DHT22;1062;52.538;13.400;2023-05-10T15:21:24;24.00;63.90
2112;DHT22;1062;52.538;13.400;2023-05-10T15:23:49;23.70;63.90
2112;DHT22;1062;52.538;13.400;2023-05-10T15:26:15;23.40;63.80
2112;DHT22;1062;52.538;13.400;2023-05-10T15:28:40;23.30;64.70
2112;DHT22;1062;52.538;13.400;2023-05-10T15:31:06;23.10;65.10
2112;DHT22;1062;52.538;13.400;2023-05-10T15:33:32;23.00;64.70
2112;DHT22;1062;52.538;13.400;2023-05-10T15:35:58;22.90;64.70
2112;DHT22;1062;52.538;13.400;2023-05-10T15:38:23;22.80;66.00
2112;DHT22;1062;52.538;13.400;2023-05-10T15:40:49;22.70;65.90
2112;DHT22;1062;52.538;13.400;2023-05-10T15:43:14;22.60;66.00
2112;DHT22;1062;52.538;13.400;2023-05-10T15:45:40;22.60;66.70
2112;DHT22;1062;52.538;13.400;2023-05-10T15:48:06;22.60;66.60
2112;DHT22;1062;52.538;13.400;2023-05-10T15:50:32;22.50;66.30
2112;DHT22;1062;52.538;13.400;2023-05-10T15:52:57;22.50;67.00
2112;DHT22;1062;52.538;13.400;2023-05-10T15:55:23;22.50;67.90
2112;DHT22;1062;52.538;13.400;2023-05-10T15:57:49;22.50;68.70
2112;DHT22;1062;52.538;13.400;2023-05-10T16:00:15;22.40;69.40
2112;DHT22;1062;52.538;13.400;2023-05-10T16:02:40;22.30;69.80
2112;DHT22;1062;52.538;13.400;2023-05-10T16:05:07;22.20;69.70
2112;DHT22;1062;52.538;13.400;2023-05-10T16:07:33;22.10;70.40
2112;DHT22;1062;52.538;13.400;2023-05-10T16:09:59;22.10;71.30
2112;DHT22;1062;52.538;13.400;2023-05-10T16:12:29;22.10;71.40
2112;DHT22;1062;52.538;13.400;2023-05-10T16:14:54;22.20;71.30
2112;DHT22;1062;52.538;13.400;2023-05-10T16:17:21;22.30;71.80
2112;DHT22;1062;52.538;13.400;2023-05-10T16:19:47;22.40;71.50
2112;DHT22;1062;52.538;13.400;2023-05-10T16:22:12;22.30;72.50
2112;DHT22;1062;52.538;13.400;2023-05-10T16:24:38;22.30;71.70
2112;DHT22;1062;52.538;13.400;2023-05-10T16:27:04;22.20;71.60
2112;DHT22;1062;52.538;13.400;2023-05-10T16:29:29;22.20;72.10
2112;DHT22;1062;52.538;13.400;2023-05-10T16:31:56;22.20;72.10
2112;DHT22;1062;52.538;13.400;2023-05-10T16:34:21;22.00;72.60
2112;DHT22;1062;52.538;13.400;2023-05-10T16:36:48;22.00;73.10
2112;DHT22;1062;52.538;13.400;2023-05-10T16:39:15;21.90;74.10
2112;DHT22;1062;52.538;13.400;2023-05-10T16:41:41;22.00;74.70
2112;DHT22;1062;52.538;13.400;2023-05-10T16:44:06;21.90;77.80
2112;DHT22;1062;52.538;13.400;2023-05-10T16:46:32;21.80;79.60
2112;DHT22;1062;52.538;13.400;2023-05-10T16:48:58;21.80;82.00
2112;DHT22;1062;52.538;13.400;2023-05-10T16:51:25;21.60;91.00
2112;DHT22;1062;52.538;13.400;2023-05-10T16:53:50;21.40;94.00
2112;DHT22;1062;52.538;13.400;2023-05-10T16:56:16;21.40;95.00
2112;DHT22;1062;52.538;13.400;2023-05-10T16:58:46;21.30;97.00
2112;DHT22;1062;52.538;13.400;2023-05-10T17:01:15;21.20;98.10
2112;DHT22;1062;52.538;13.400;2023-05-10T17:03:41;21.00;99.80
2112;DHT22;1062;52.538;13.400;2023-05-10T17:06:07;20.80;99.90
2112;DHT22;1062;52.538;13.400;2023-05-10T17:08:32;20.60;99.90
2112;DHT22;1062;52.538;13.400;2023-05-10T17:11:01;20.50;99.90
2112;DHT22;1062;52.538;13.400;2023-05-10T17:13:28;20.40;99.90
2112;DHT22;1062;52.538;13.400;2023-05-10T17:15:53;20.30;99.90
2112;DHT22;1062;52.538;13.400;2023-05-10T17:18:19;20.20;99.90
2112;DHT22;1062;52.538;13.400;2023-05-10T17:20:45;20.00;99.90
2112;DHT22;1062;52.538;13.400;2023-05-10T17:23:10;20.00;99.90
2112;DHT22;1062;52.538;13.400;2023-05-10T17:25:36;20.00;99.90
2112;DHT22;1062;52.538;13.400;2023-05-10T17:28:02;19.90;99.90
2112;DHT22;1062;52.538;13.400;2023-05-10T17:30:28;19.80;99.90
2112;DHT22;1062;52.538;13.400;2023-05-10T17:32:59;19.70;99.90
2112;DHT22;1062;52.538;13.400;2023-05-10T17:35:25;19.50;99.90
2112;DHT22;1062;52.538;13.400;2023-05-10T17:37:51;19.40;99.90
2112;DHT22;1062;52.538;13.400;2023-05-10T17:40:17;19.40;99.90
2112;DHT22;1062;52.538;13.400;2023-05-10T17:42:42;19.30;99.90
2112;DHT22;1062;52.538;13.400;2023-05-10T17:45:09;19.20;99.90
2112;DHT22;1062;52.538;13.400;2023-05-10T17:47:34;19.20;99.90
2112;DHT22;1062;52.538;13.400;2023-05-10T17:50:00;19.10;99.90
2112;DHT22;1062;52.538;13.400;2023-05-10T17:52:26;19.00;99.90
2112;DHT22;1062;52.538;13.400;2023-05-10T17:54:52;19.00;99.90
2112;DHT22;1062;52.538;13.400;2023-05-10T17:57:18;18.90;99.90
2112;DHT22;1062;52.538;13.400;2023-05-10T17:59:45;18.80;99.90
2112;DHT22;1062;52.538;13.400;2023-05-10T18:02:11;18.80;99.90
2112;DHT22;1062;52.538;13.400;2023-05-10T18:04:39;18.80;99.90
2112;DHT22;1062;52.538;13.400;2023-05-10T18:07:05;18.70;99.90
2112;DHT22;1062;52.538;13.400;2023-05-10T18:09:30;18.60;99.90
2112;DHT22;1062;52.538;13.400;2023-05-10T18:11:58;18.50;99.90
2112;DHT22;1062;52.538;13.400;2023-05-10T18:14:24;18.50;99.90
2112;DHT22;1062;52.538;13.400;2023-05-10T18:16:55;18.30;99.90
2112;DHT22;1062;52.538;13.400;2023-05-10T18:19:21;18.30;99.90
2112;DHT22;1062;52.538;13.400;2023-05-10T18:21:50;18.20;99.90
2112;DHT22;1062;52.538;13.400;2023-05-10T18:24:21;18.10;99.90
2112;DHT22;1062;52.538;13.400;2023-05-10T18:26:47;18.10;99.90
2112;DHT22;1062;52.538;13.400;2023-05-10T18:29:13;18.00;99.90
2112;DHT22;1062;52.538;13.400;2023-05-10T18:31:38;17.90;99.90
2112;DHT22;1062;52.538;13.400;2023-05-10T18:34:04;17.90;99.90
2112;DHT22;1062;52.538;13.400;2023-05-10T18:36:30;17.80;99.90
2112;DHT22;1062;52.538;13.400;2023-05-10T18:38:56;17.70;99.90
2112;DHT22;1062;52.538;13.400;2023-05-10T18:41:22;17.70;99.90
2112;DHT22;1062;52.538;13.400;2023-05-10T18:43:51;17.60;99.90
2112;DHT22;1062;52.538;13.400;2023-05-10T18:46:16;17.50;99.90
2112;DHT22;1062;52.538;13.400;2023-05-10T18:48:42;17.50;99.90
2112;DHT22;1062;52.538;13.400;2023-05-10T18:51:08;17.40;99.90
2112;DHT22;1062;52.538;13.400;2023-05-10T18:53:33;17.30;99.90
2112;DHT22;1062;52.538;13.400;2023-05-10T18:55:59;17.20;99.90
2112;DHT22;1062;52.538;13.400;2023-05-10T18:58:28;17.20;99.90
2112;DHT22;1062;52.538;13.400;2023-05-10T19:00:54;17.10;99.90
2112;DHT22;1062;52.538;13.400;2023-05-10T19:03:20;17.10;99.90
2112;DHT22;1062;52.538;13.400;2023-05-10T19:05:47;17.10;99.90
2112;DHT22;1062;52.538;13.400;2023-05-10T19:08:16;17.00;99.90
2112;DHT22;1062;52.538;13.400;2023-05-10T19:10:42;16.90;99.90
2112;DHT22;1062;52.538;13.400;2023-05-10T19:13:08;16.90;99.90
2112;DHT22;1062;52.538;13.400;2023-05-10T19:15:34;16.90;99.90
2112;DHT22;1062;52.538;13.400;2023-05-10T19:17:59;16.80;99.90
2112;DHT22;1062;52.538;13.400;2023-05-10T19:20:25;16.80;99.90
2112;DHT22;1062;52.538;13.400;2023-05-10T19:22:51;16.80;99.90
2112;DHT22;1062;52.538;13.400;2023-05-10T19:25:17;16.80;99.90
2112;DHT22;1062;52.538;13.400;2023-05-10T19:27:42;16.90;99.90
2112;DHT22;1062;52.538;13.400;2023-05-10T19:30:08;16.80;99.90
2112;DHT22;1062;52.538;13.400;2023-05-10T19:32:34;16.80;99.90
2112;DHT22;1062;52.538;13.400;2023-05-10T19:34:59;16.60;99.90
2112;DHT22;1062;52.538;13.400;2023-05-10T19:37:25;16.50;99.90
2112;DHT22;1062;52.538;13.400;2023-05-10T19:39:51;16.50;99.90
2112;DHT22;1062;52.538;13.400;2023-05-10T19:42:17;16.40;99.90
2112;DHT22;1062;52.538;13.400;2023-05-10T19:44:43;16.40;99.90
2112;DHT22;1062;52.538;13.400;2023-05-10T19:47:08;16.40;99.90
2112;DHT22;1062;52.538;13.400;2023-05-10T19:49:34;16.40;99.90
2112;DHT22;1062;52.538;13.400;2023-05-10T19:52:01;16.40;99.90
2112;DHT22;1062;52.538;13.400;2023-05-10T19:54:27;16.50;99.90
2112;DHT22;1062;52.538;13.400;2023-05-10T19:56:53;16.40;99.90
2112;DHT22;1062;52.538;13.400;2023-05-10T19:59:19;16.40;99.90
2112;DHT22;1062;52.538;13.400;2023-05-10T20:01:44;16.30;99.90
2112;DHT22;1062;52.538;13.400;2023-05-10T20:04:11;16.20;99.90
2112;DHT22;1062;52.538;13.400;2023-05-10T20:06:36;16.20;99.90
2112;DHT22;1062;52.538;13.400;2023-05-10T20:09:02;16.20;99.90
2112;DHT22;1062;52.538;13.400;2023-05-10T20:11:28;16.10;99.90
2112;DHT22;1062;52.538;13.400;2023-05-10T20:13:54;16.00;99.90
2112;DHT22;1062;52.538;13.400;2023-05-10T20:16:20;16.00;99.90
2112;DHT22;1062;52.538;13.400;2023-05-10T20:18:45;15.90;99.90
2112;DHT22;1062;52.538;13.400;2023-05-10T20:21:11;15.90;99.90
2112;DHT22;1062;52.538;13.400;2023-05-10T20:23:36;15.90;99.90
2112;DHT22;1062;52.538;13.400;2023-05-10T20:26:03;15.80;99.90
2112;DHT22;1062;52.538;13.400;2023-05-10T20:28:28;15.70;99.90
2112;DHT22;1062;52.538;13.400;2023-05-10T20:30:55;15.70;99.90
2112;DHT22;1062;52.538;13.400;2023-05-10T20:33:23;15.70;99.90
2112;DHT22;1062;52.538;13.400;2023-05-10T20:35:49;15.70;99.90
2112;DHT22;1062;52.538;13.400;2023-05-10T20:38:16;15.60;99.90
2112;DHT22;1062;52.538;13.400;2023-05-10T20:40:43;15.70;99.90
2112;DHT22;1062;52.538;13.400;2023-05-10T20:43:09;15.70;99.90
2112;DHT22;1062;52.538;13.400;2023-05-10T20:45:36;15.60;99.90
2112;DHT22;1062;52.538;13.400;2023-05-10T20:48:02;15.60;99.90
2112;DHT22;1062;52.538;13.400;2023-05-10T20:50:27;15.50;99.90
2112;DHT22;1062;52.538;13.400;2023-05-10T20:52:53;15.50;99.90
2112;DHT22;1062;52.538;13.400;2023-05-10T20:55:19;15.50;99.90
2112;DHT22;1062;52.538;13.400;2023-05-10T20:57:45;15.40;99.90
2112;DHT22;1062;52.538;13.400;2023-05-10T21:00:12;15.40;99.90
2112;DHT22;1062;52.538;13.400;2023-05-10T21:02:41;15.30;99.90
2112;DHT22;1062;52.538;13.400;2023-05-10T21:05:07;15.30;99.90
2112;DHT22;1062;52.538;13.400;2023-05-10T21:07:33;15.30;99.90
2112;DHT22;1062;52.538;13.400;2023-05-10T21:09:59;15.30;99.90
2112;DHT22;1062;52.538;13.400;2023-05-10T21:12:25;15.20;99.90
2112;DHT22;1062;52.538;13.400;2023-05-10T21:14:50;15.10;99.90
2112;DHT22;1062;52.538;13.400;2023-05-10T21:17:16;15.10;99.90
2112;DHT22;1062;52.538;13.400;2023-05-10T21:19:41;15.00;99.90
2112;DHT22;1062;52.538;13.400;2023-05-10T21:22:07;15.00;99.90
2112;DHT22;1062;52.538;13.400;2023-05-10T21:24:33;14.90;99.90
2112;DHT22;1062;52.538;13.400;2023-05-10T21:26:59;14.90;99.90
2112;DHT22;1062;52.538;13.400;2023-05-10T21:29:25;14.90;99.90
2112;DHT22;1062;52.538;13.400;2023-05-10T21:31:51;14.90;99.90
2112;DHT22;1062;52.538;13.400;2023-05-10T21:34:17;14.80;99.90
2112;DHT22;1062;52.538;13.400;2023-05-10T21:36:43;14.80;99.90
2112;DHT22;1062;52.538;13.400;2023-05-10T21:39:09;14.80;99.90
2112;DHT22;1062;52.538;13.400;2023-05-10T21:41:35;14.80;99.90
2112;DHT22;1062;52.538;13.400;2023-05-10T21:44:00;14.80;99.90
2112;DHT22;1062;52.538;13.400;2023-05-10T21:46:26;14.70;99.90
2112;DHT22;1062;52.538;13.400;2023-05-10T21:48:51;14.80;99.90
2112;DHT22;1062;52.538;13.400;2023-05-10T21:51:17;14.70;99.90
2112;DHT22;1062;52.538;13.400;2023-05-10T21:53:43;14.80;99.90
2112;DHT22;1062;52.538;13.400;2023-05-10T21:56:08;14.70;99.90
2112;DHT22;1062;52.538;13.400;2023-05-10T21:58:34;14.60;99.90
2112;DHT22;1062;52.538;13.400;2023-05-10T22:00:59;14.60;99.90
2112;DHT22;1062;52.538;13.400;2023-05-10T22:03:25;14.50;99.90
2112;DHT22;1062;52.538;13.400;2023-05-10T22:05:51;14.50;99.90
2112;DHT22;1062;52.538;13.400;2023-05-10T22:08:16;14.50;99.90
2112;DHT22;1062;52.538;13.400;2023-05-10T22:10:42;14.50;99.90
2112;DHT22;1062;52.538;13.400;2023-05-10T22:13:07;14.60;99.90
2112;DHT22;1062;52.538;13.400;2023-05-10T22:15:33;14.70;99.90
2112;DHT22;1062;52.538;13.400;2023-05-10T22:17:59;14.60;99.90
2112;DHT22;1062;52.538;13.400;2023-05-10T22:20:24;14.60;99.90
2112;DHT22;1062;52.538;13.400;2023-05-10T22:22:50;14.60;99.90
2112;DHT22;1062;52.538;13.400;2023-05-10T22:25:15;14.60;99.90
2112;DHT22;1062;52.538;13.400;2023-05-10T22:27:41;14.60;99.90
2112;DHT22;1062;52.538;13.400;2023-05-10T22:30:07;14.50;99.90
2112;DHT22;1062;52.538;13.400;2023-05-10T22:32:33;14.50;99.90
2112;DHT22;1062;52.538;13.400;2023-05-10T22:34:58;14.50;99.90
2112;DHT22;1062;52.538;13.400;2023-05-10T22:37:24;14.50;99.90
2112;DHT22;1062;52.538;13.400;2023-05-10T22:39:49;14.40;99.90
2112;DHT22;1062;52.538;13.400;2023-05-10T22:42:15;14.40;99.90
2112;DHT22;1062;52.538;13.400;2023-05-10T22:44:41;14.40;99.90
2112;DHT22;1062;52.538;13.400;2023-05-10T22:47:07;14.40;99.90
2112;DHT22;1062;52.538;13.400;2023-05-10T22:49:33;14.50;99.90
2112;DHT22;1062;52.538;13.400;2023-05-10T22:51:59;14.50;99.90
2112;DHT22;1062;52.538;13.400;2023-05-10T22:54:25;14.40;99.90
2112;DHT22;1062;52.538;13.400;2023-05-10T22:56:50;14.40;99.90
2112;DHT22;1062;52.538;13.400;2023-05-10T22:59:16;14.40;99.90
2112;DHT22;1062;52.538;13.400;2023-05-10T23:01:41;14.40;99.90
2112;DHT22;1062;52.538;13.400;2023-05-10T23:04:07;14.40;99.90
2112;DHT22;1062;52.538;13.400;2023-05-10T23:06:33;14.40;99.90
2112;DHT22;1062;52.538;13.400;2023-05-10T23:08:59;14.30;99.90
2112;DHT22;1062;52.538;13.400;2023-05-10T23:11:25;14.30;99.90
2112;DHT22;1062;52.538;13.400;2023-05-10T23:13:50;14.30;99.90
2112;DHT22;1062;52.538;13.400;2023-05-10T23:16:17;14.30;99.90
2112;DHT22;1062;52.538;13.400;2023-05-10T23:18:42;14.30;99.90
2112;DHT22;1062;52.538;13.400;2023-05-10T23:21:08;14.20;99.90
2112;DHT22;1062;52.538;13.400;2023-05-10T23:23:34;14.20;99.90
2112;DHT22;1062;52.538;13.400;2023-05-10T23:26:02;14.20;99.90
2112;DHT22;1062;52.538;13.400;2023-05-10T23:28:29;14.20;99.90
2112;DHT22;1062;52.538;13.400;2023-05-10T23:30:58;14.10;99.90
2112;DHT22;1062;52.538;13.400;2023-05-10T23:33:24;14.10;99.90
2112;DHT22;1062;52.538;13.400;2023-05-10T23:35:53;14.00;99.90
2112;DHT22;1062;52.538;13.400;2023-05-10T23:38:19;14.00;99.90
2112;DHT22;1062;52.538;13.400;2023-05-10T23:40:48;14.00;99.90
2112;DHT22;1062;52.538;13.400;2023-05-10T23:43:15;13.90;99.90
2112;DHT22;1062;52.538;13.400;2023-05-10T23:45:42;13.90;99.90
2112;DHT22;1062;52.538;13.400;2023-05-10T23:48:08;13.90;99.90
2112;DHT22;1062;52.538;13.400;2023-05-10T23:50:33;13.80;99.90
2112;DHT22;1062;52.538;13.400;2023-05-10T23:52:59;13.80;99.90
2112;DHT22;1062;52.538;13.400;2023-05-10T23:55:24;13.80;99.90
2112;DHT22;1062;52.538;13.400;2023-05-10T23:57:50;13.70;99.90
